Time;durP1;ratioP1;P1;durP2;ratioP2;P2;SDS_P1;SDS_P2;PMS_P1;PMS_P2;Temp;Humidity;BMP_temperature;BMP_pressure;BME280_temperature;BME280_humidity;BME280_pressure;Samples;Min_cycle;Max_cycle;Signal;HPM_P1;HPM_P2
2022/06/05 00:02:23;;;;;;;12.73;6.35;;;18.60;65.10;;;;;;5051695;28;20025;-76
2022/06/05 00:05:02;;;;;;;8.10;4.05;;;18.60;65.40;;;;;;5050323;28;20025;-74
2022/06/05 00:07:30;;;;;;;6.22;3.47;;;18.60;65.20;;;;;;5050454;28;20323;-75
2022/06/05 00:09:56;;;;;;;4.63;2.75;;;18.60;65.70;;;;;;5051164;28;20311;-76
2022/06/05 00:13:11;;;;;;;11.02;5.07;;;18.60;65.00;;;;;;5049812;28;20403;-76
2022/06/05 00:15:37;;;;;;;5.97;3.10;;;18.60;65.20;;;;;;5035823;28;20150;-76
2022/06/05 00:18:03;;;;;;;7.00;3.40;;;18.60;64.90;;;;;;5051095;28;20128;-76
2022/06/05 00:20:29;;;;;;;8.57;3.55;;;18.60;64.90;;;;;;5050939;28;20021;-76
2022/06/05 00:22:54;;;;;;;8.48;4.90;;;18.60;65.00;;;;;;5050998;28;20052;-76
2022/06/05 00:25:20;;;;;;;6.45;4.10;;;18.50;65.00;;;;;;5048673;28;20033;-75
2022/06/05 00:27:55;;;;;;;6.20;3.85;;;18.50;65.10;;;;;;5050932;28;20112;-76
2022/06/05 00:30:33;;;;;;;6.38;3.80;;;18.40;65.20;;;;;;5050912;28;20037;-76
2022/06/05 00:33:26;;;;;;;7.35;4.13;;;18.50;65.30;;;;;;5050791;28;20150;-77
2022/06/05 00:36:09;;;;;;;9.05;4.70;;;18.40;65.30;;;;;;5049630;28;20111;-77
2022/06/05 00:38:59;;;;;;;7.25;3.55;;;18.40;66.20;;;;;;5049982;28;20782;-76
2022/06/05 00:42:05;;;;;;;7.57;4.97;;;18.40;65.40;;;;;;5048848;28;20045;-75
2022/06/05 00:44:40;;;;;;;4.57;2.67;;;18.40;65.70;;;;;;5046342;28;20041;-76
2022/06/05 00:47:08;;;;;;;8.32;4.50;;;18.30;65.70;;;;;;5049851;28;20082;-75
2022/06/05 00:49:45;;;;;;;8.05;4.32;;;18.30;65.90;;;;;;5050216;28;20041;-75
2022/06/05 00:52:13;;;;;;;7.47;3.58;;;18.20;66.00;;;;;;5050510;28;20024;-76
2022/06/05 00:54:40;;;;;;;6.97;3.97;;;18.30;66.10;;;;;;5042408;28;20116;-76
2022/06/05 00:57:09;;;;;;;6.57;3.30;;;18.30;66.60;;;;;;5051758;28;20124;-75
2022/06/05 00:59:37;;;;;;;6.97;4.27;;;18.20;65.80;;;;;;5050077;28;20017;-76
2022/06/05 01:02:05;;;;;;;4.88;3.13;;;18.20;65.90;;;;;;5049831;28;20068;-77
2022/06/05 01:04:33;;;;;;;9.93;5.93;;;18.20;66.10;;;;;;5050126;28;20037;-75
2022/06/05 01:06:59;;;;;;;6.35;3.75;;;18.20;66.10;;;;;;5050091;28;20032;-76
2022/06/05 01:09:24;;;;;;;9.80;5.30;;;18.20;66.00;;;;;;5042097;28;20030;-75
2022/06/05 01:12:18;;;;;;;6.07;4.22;;;18.20;66.10;;;;;;5049099;28;20147;-74
2022/06/05 01:15:11;;;;;;;6.47;3.72;;;18.20;66.10;;;;;;5050687;28;20113;-75
2022/06/05 01:17:46;;;;;;;9.55;4.82;;;18.10;66.20;;;;;;5048142;28;20029;-75
2022/06/05 01:20:39;;;;;;;9.73;4.65;;;18.10;66.40;;;;;;5049830;28;20495;-75
2022/06/05 01:23:29;;;;;;;6.78;4.60;;;18.00;66.70;;;;;;5039759;28;20104;-75
2022/06/05 01:26:02;;;;;;;5.82;3.28;;;18.00;66.70;;;;;;5049565;28;20079;-75
2022/06/05 01:28:31;;;;;;;7.35;4.55;;;18.00;66.50;;;;;;5049451;28;20029;-76
2022/06/05 01:31:22;;;;;;;4.97;2.92;;;18.00;66.70;;;;;;5050086;28;20029;-76
2022/06/05 01:34:04;;;;;;;8.55;5.43;;;18.00;66.60;;;;;;5050989;28;20118;-75
2022/06/05 01:36:45;;;;;;;7.63;4.85;;;18.00;67.00;;;;;;5064256;28;20025;-76
2022/06/05 01:39:16;;;;;;;8.68;5.10;;;18.00;66.90;;;;;;5050239;28;20029;-76
2022/06/05 01:41:49;;;;;;;7.70;4.28;;;17.90;67.20;;;;;;5049293;28;20111;-76
2022/06/05 01:44:22;;;;;;;10.98;5.50;;;17.90;67.10;;;;;;5047598;28;20035;-76
2022/06/05 01:46:49;;;;;;;6.68;4.35;;;17.90;67.40;;;;;;5049183;28;20009;-77
2022/06/05 01:49:21;;;;;;;9.10;5.57;;;17.80;67.50;;;;;;5049167;28;20152;-76
2022/06/05 01:51:59;;;;;;;8.00;4.82;;;17.80;67.60;;;;;;5049340;28;20033;-74
2022/06/05 01:54:46;;;;;;;8.25;4.53;;;17.70;68.60;;;;;;5049144;28;20036;-76
2022/06/05 01:57:14;;;;;;;8.20;4.78;;;17.70;68.10;;;;;;5047628;28;20383;-75
2022/06/05 01:59:49;;;;;;;9.43;4.80;;;17.60;68.30;;;;;;5048546;28;20025;-76
2022/06/05 02:02:25;;;;;;;7.93;5.22;;;17.60;68.50;;;;;;5048981;28;20052;-75
2022/06/05 02:05:01;;;;;;;12.00;6.63;;;17.60;68.40;;;;;;5049405;28;20074;-76
2022/06/05 02:07:33;;;;;;;9.80;6.55;;;17.60;69.30;;;;;;5048211;28;20034;-75
2022/06/05 02:10:09;;;;;;;13.20;8.25;;;17.50;69.00;;;;;;5049319;28;20028;-74
2022/06/05 02:12:36;;;;;;;9.43;6.63;;;17.50;69.60;;;;;;5049571;28;20202;-74
2022/06/05 02:15:04;;;;;;;9.77;6.80;;;17.40;69.40;;;;;;5048512;28;20025;-75
2022/06/05 02:17:30;;;;;;;9.18;5.40;;;17.40;69.70;;;;;;5048132;28;20367;-75
2022/06/05 02:19:57;;;;;;;7.40;5.00;;;17.40;69.80;;;;;;5049618;28;20155;-75
2022/06/05 02:22:35;;;;;;;9.40;5.18;;;17.30;69.00;;;;;;5050708;28;20035;-76
2022/06/05 02:25:01;;;;;;;14.63;7.70;;;17.30;69.00;;;;;;5049302;28;20021;-75
2022/06/05 02:27:27;;;;;;;11.20;6.45;;;17.30;69.30;;;;;;5048975;28;20749;-76
2022/06/05 02:29:55;;;;;;;9.05;6.53;;;17.30;69.50;;;;;;5047775;28;20016;-76
2022/06/05 02:32:48;;;;;;;5.97;3.08;;;17.30;69.10;;;;;;5051998;28;20122;-75
2022/06/05 02:35:25;;;;;;;10.63;6.82;;;17.20;68.80;;;;;;5051529;28;20048;-76
2022/06/05 02:38:03;;;;;;;10.48;5.93;;;17.20;70.10;;;;;;5052487;28;20032;-75
2022/06/05 02:40:37;;;;;;;11.65;7.38;;;17.20;69.00;;;;;;5048772;28;20028;-75
2022/06/05 02:43:19;;;;;;;6.88;5.25;;;17.10;70.00;;;;;;5051806;28;21090;-75
2022/06/05 02:46:04;;;;;;;11.02;6.32;;;17.10;69.80;;;;;;5053612;28;20112;-75
2022/06/05 02:48:37;;;;;;;5.18;3.05;;;17.10;70.50;;;;;;5052327;28;20024;-76
2022/06/05 02:51:13;;;;;;;11.20;7.07;;;17.00;69.40;;;;;;5043753;28;20026;-76
2022/06/05 02:53:53;;;;;;;10.95;6.90;;;16.90;71.00;;;;;;5045312;28;20099;-75
2022/06/05 02:56:20;;;;;;;15.43;8.60;;;16.90;71.20;;;;;;5044188;28;20074;-76
2022/06/05 02:58:48;;;;;;;4.93;3.28;;;16.90;70.60;;;;;;5043778;28;20039;-76
2022/06/05 03:03:59;;;;;;;6.80;4.97;;;16.90;72.00;;;;;;5042182;28;20150;-76
2022/06/05 03:06:27;;;;;;;9.38;6.20;;;16.90;70.80;;;;;;5044104;28;20132;-76
2022/06/05 03:08:53;;;;;;;12.82;8.10;;;16.90;71.10;;;;;;5043037;28;20147;-75
2022/06/05 03:11:19;;;;;;;9.65;5.68;;;16.80;71.00;;;;;;5047616;28;20096;-76
2022/06/05 03:13:44;;;;;;;8.38;6.38;;;16.80;70.90;;;;;;5039612;28;20093;-76
2022/06/05 03:16:10;;;;;;;11.13;6.72;;;16.80;71.10;;;;;;5044874;28;20057;-76
2022/06/05 03:18:37;;;;;;;8.20;6.03;;;16.70;71.80;;;;;;5038575;28;20021;-76
2022/06/05 03:21:02;;;;;;;13.52;8.18;;;16.70;71.10;;;;;;5046163;28;20037;-75
2022/06/05 03:23:28;;;;;;;8.13;4.80;;;16.70;71.20;;;;;;5041629;28;20067;-76
2022/06/05 03:25:54;;;;;;;6.90;4.35;;;16.70;70.90;;;;;;5041290;28;20009;-76
2022/06/05 03:28:19;;;;;;;7.95;4.82;;;16.70;70.60;;;;;;5040753;28;20383;-76
2022/06/05 03:30:45;;;;;;;10.80;7.85;;;16.70;70.50;;;;;;5046110;28;20110;-77
2022/06/05 03:33:11;;;;;;;7.40;5.20;;;16.70;71.70;;;;;;5044166;28;20028;-76
2022/06/05 03:35:39;;;;;;;12.20;7.72;;;16.70;70.60;;;;;;5043875;28;20052;-76
2022/06/05 03:38:05;;;;;;;6.50;3.70;;;16.70;71.20;;;;;;5043886;28;20116;-75
2022/06/05 03:40:32;;;;;;;6.68;3.80;;;16.70;70.20;;;;;;5042792;28;20537;-75
2022/06/05 03:42:59;;;;;;;9.15;5.70;;;16.70;70.10;;;;;;5040796;28;20028;-75
2022/06/05 03:45:24;;;;;;;9.15;6.65;;;16.70;71.20;;;;;;5042937;28;20021;-75
2022/06/05 03:47:50;;;;;;;6.60;4.20;;;16.60;71.80;;;;;;5046696;28;20030;-77
2022/06/05 03:50:17;;;;;;;7.88;5.35;;;16.60;71.20;;;;;;5042375;28;20025;-76
2022/06/05 03:52:43;;;;;;;9.63;6.65;;;16.60;71.30;;;;;;5042389;28;20040;-76
2022/06/05 03:55:12;;;;;;;13.45;8.55;;;16.60;71.00;;;;;;5041134;28;20021;-77
2022/06/05 03:57:38;;;;;;;10.20;5.07;;;16.60;72.00;;;;;;5051632;28;20021;-76
2022/06/05 04:00:05;;;;;;;7.97;5.10;;;16.60;71.30;;;;;;5044901;28;20029;-75
2022/06/05 04:02:31;;;;;;;11.90;7.70;;;16.70;70.80;;;;;;5056880;28;20028;-75
2022/06/05 04:04:59;;;;;;;13.77;10.15;;;16.60;71.80;;;;;;5036167;28;20034;-74
2022/06/05 04:07:25;;;;;;;13.35;8.93;;;16.60;72.80;;;;;;5048601;28;20028;-76
2022/06/05 04:09:50;;;;;;;8.65;5.03;;;16.60;72.70;;;;;;5051972;28;20087;-76
2022/06/05 04:12:17;;;;;;;16.35;8.55;;;16.70;71.80;;;;;;5051761;28;20029;-74
2022/06/05 04:14:43;;;;;;;9.25;5.47;;;16.70;71.10;;;;;;5051336;28;20024;-75
2022/06/05 04:17:10;;;;;;;12.98;8.27;;;16.70;71.50;;;;;;5051416;28;20079;-75
2022/06/05 04:19:36;;;;;;;10.27;6.32;;;16.70;72.40;;;;;;5051543;28;20025;-75
2022/06/05 04:22:02;;;;;;;9.00;5.78;;;16.70;72.30;;;;;;5051526;28;20057;-76
2022/06/05 04:24:27;;;;;;;14.52;9.60;;;16.80;71.80;;;;;;5051229;28;20032;-75
2022/06/05 04:26:53;;;;;;;11.60;5.78;;;16.80;72.30;;;;;;5050985;28;20045;-74
2022/06/05 04:29:19;;;;;;;10.48;7.65;;;16.80;71.70;;;;;;5050384;28;20082;-75
2022/06/05 04:31:47;;;;;;;11.18;6.82;;;16.90;72.00;;;;;;5035396;28;20144;-74
2022/06/05 04:34:15;;;;;;;9.02;6.10;;;16.90;70.70;;;;;;5050995;28;20037;-73
2022/06/05 04:36:42;;;;;;;7.75;5.32;;;16.90;71.00;;;;;;5049002;28;20488;-75
2022/06/05 04:39:08;;;;;;;9.73;5.40;;;16.90;70.30;;;;;;5050911;28;20566;-75
2022/06/05 04:41:36;;;;;;;9.65;6.00;;;17.00;70.30;;;;;;5051009;28;20029;-75
2022/06/05 04:44:01;;;;;;;10.15;5.35;;;17.00;70.50;;;;;;5050644;28;20029;-76
2022/06/05 04:46:28;;;;;;;8.75;5.45;;;17.10;70.70;;;;;;5050905;28;20043;-76
2022/06/05 04:48:54;;;;;;;8.85;5.55;;;17.10;70.20;;;;;;5051120;28;20029;-76
2022/06/05 04:51:21;;;;;;;6.20;3.80;;;17.20;69.40;;;;;;5051071;28;20108;-76
2022/06/05 04:53:48;;;;;;;6.82;4.30;;;17.20;68.90;;;;;;5050648;28;20045;-75
2022/06/05 04:56:22;;;;;;;11.82;8.48;;;17.30;68.20;;;;;;5049456;28;20024;-76
2022/06/05 04:58:48;;;;;;;11.85;7.88;;;17.40;69.00;;;;;;5050588;28;20028;-75
2022/06/05 05:01:23;;;;;;;11.15;7.43;;;17.40;70.30;;;;;;5050188;28;20376;-76
2022/06/05 05:03:53;;;;;;;8.73;4.68;;;17.40;69.30;;;;;;5050509;28;20108;-76
2022/06/05 05:06:19;;;;;;;9.77;7.95;;;17.40;69.00;;;;;;5049027;28;20037;-74
2022/06/05 05:08:44;;;;;;;10.32;5.43;;;17.50;69.80;;;;;;5040097;28;20021;-75
2022/06/05 05:11:13;;;;;;;10.50;6.85;;;17.50;68.80;;;;;;5048687;28;20032;-76
2022/06/05 05:13:39;;;;;;;7.70;4.95;;;17.50;69.60;;;;;;5050155;28;20021;-76
2022/06/05 05:16:07;;;;;;;11.57;7.00;;;17.50;69.30;;;;;;5050670;28;20025;-76
2022/06/05 05:18:34;;;;;;;11.40;8.50;;;17.50;69.70;;;;;;5050327;28;20017;-76
2022/06/05 05:21:08;;;;;;;11.85;7.88;;;17.50;69.30;;;;;;5048213;28;20032;-75
2022/06/05 05:23:37;;;;;;;9.60;5.75;;;17.50;69.80;;;;;;5050178;28;20108;-76
2022/06/05 05:26:15;;;;;;;12.30;8.23;;;17.60;68.80;;;;;;5049934;28;20131;-76
2022/06/05 05:28:42;;;;;;;11.85;7.32;;;17.60;70.10;;;;;;5049897;28;20029;-75
2022/06/05 05:31:10;;;;;;;10.68;5.25;;;17.60;70.40;;;;;;5049672;28;20031;-76
2022/06/05 05:33:37;;;;;;;11.73;5.78;;;17.60;69.00;;;;;;5049448;28;20044;-76
2022/06/05 05:36:03;;;;;;;11.25;7.60;;;17.60;68.80;;;;;;5049131;28;20025;-77
2022/06/05 05:38:29;;;;;;;9.55;6.43;;;17.60;68.90;;;;;;5049436;28;20087;-77
2022/06/05 05:43:39;;;;;;;14.23;9.43;;;17.60;69.10;;;;;;5049465;28;20047;-76
2022/06/05 05:46:09;;;;;;;13.57;9.73;;;17.60;70.00;;;;;;5049423;28;20013;-78
2022/06/05 05:48:34;;;;;;;10.85;7.90;;;17.60;70.20;;;;;;5048459;28;20845;-77
2022/06/05 05:51:00;;;;;;;10.18;7.38;;;17.60;69.60;;;;;;5048490;28;20032;-76
2022/06/05 05:53:25;;;;;;;12.85;9.05;;;17.60;69.20;;;;;;5049605;28;20036;-76
2022/06/05 05:55:51;;;;;;;9.95;8.05;;;17.50;70.30;;;;;;5049877;28;20127;-75
2022/06/05 05:58:17;;;;;;;13.02;8.95;;;17.50;70.10;;;;;;5048986;28;20074;-78
2022/06/05 06:00:45;;;;;;;13.88;9.65;;;17.50;70.30;;;;;;5050669;28;20028;-75
2022/06/05 06:03:10;;;;;;;10.57;8.40;;;17.50;70.60;;;;;;5050203;28;20431;-77
2022/06/05 06:05:37;;;;;;;13.43;8.73;;;17.50;70.70;;;;;;5047762;28;20230;-75
2022/06/05 06:08:03;;;;;;;11.73;7.45;;;17.50;70.60;;;;;;5049424;28;20025;-77
2022/06/05 06:10:28;;;;;;;12.45;8.07;;;17.50;70.20;;;;;;5049251;28;20013;-76
2022/06/05 06:12:54;;;;;;;12.43;6.75;;;17.50;70.30;;;;;;5047706;28;20071;-76
2022/06/05 06:15:19;;;;;;;9.23;6.72;;;17.60;70.00;;;;;;5048666;28;20017;-75
2022/06/05 06:17:45;;;;;;;9.80;7.28;;;17.60;70.00;;;;;;5049496;28;20356;-76
2022/06/05 06:20:12;;;;;;;8.65;6.53;;;17.60;70.70;;;;;;5048871;28;20025;-76
2022/06/05 06:22:41;;;;;;;9.75;6.47;;;17.60;70.50;;;;;;5050716;28;20037;-76
2022/06/05 06:25:07;;;;;;;9.23;5.70;;;17.60;70.10;;;;;;5052993;28;20489;-75
2022/06/05 06:27:34;;;;;;;9.23;5.82;;;17.70;69.10;;;;;;5058383;28;20010;-75
2022/06/05 06:29:59;;;;;;;9.57;6.72;;;17.80;69.40;;;;;;5064568;28;20017;-75
2022/06/05 06:32:25;;;;;;;10.15;8.15;;;17.80;69.90;;;;;;5049665;28;20036;-77
2022/06/05 06:34:51;;;;;;;10.77;7.95;;;17.90;69.30;;;;;;5048719;28;20049;-76
2022/06/05 06:37:16;;;;;;;8.65;6.32;;;17.90;69.60;;;;;;5048889;28;20376;-76
2022/06/05 06:39:42;;;;;;;9.20;6.93;;;17.90;68.90;;;;;;5048699;28;20017;-76
2022/06/05 06:42:08;;;;;;;9.13;5.60;;;18.00;68.70;;;;;;5048782;28;20120;-77
2022/06/05 06:44:34;;;;;;;9.43;5.78;;;18.10;68.50;;;;;;5048481;28;20820;-76
2022/06/05 06:46:59;;;;;;;8.27;5.97;;;18.10;67.80;;;;;;5048608;28;20021;-76
2022/06/05 06:49:25;;;;;;;8.73;6.13;;;18.20;68.20;;;;;;5048262;28;20037;-77
2022/06/05 06:51:51;;;;;;;11.63;8.32;;;18.30;67.20;;;;;;5047549;28;20033;-76
2022/06/05 06:54:16;;;;;;;9.25;6.95;;;18.30;68.00;;;;;;5049096;28;20103;-75
2022/06/05 06:56:43;;;;;;;10.00;6.47;;;18.40;67.30;;;;;;5048778;28;20045;-75
2022/06/05 06:59:09;;;;;;;11.48;8.68;;;18.40;67.50;;;;;;5048410;28;20386;-76
2022/06/05 07:01:34;;;;;;;10.00;7.32;;;18.40;68.10;;;;;;5048762;28;20029;-76
2022/06/05 07:04:01;;;;;;;8.00;4.25;;;18.50;68.10;;;;;;5048137;28;20029;-76
2022/06/05 07:06:26;;;;;;;8.40;6.10;;;18.50;66.80;;;;;;5048756;28;20457;-76
2022/06/05 07:08:52;;;;;;;8.00;5.10;;;18.60;67.30;;;;;;5046561;28;20025;-75
2022/06/05 07:11:18;;;;;;;9.00;4.63;;;18.70;66.30;;;;;;5036059;28;20029;-76
2022/06/05 07:13:44;;;;;;;10.00;7.28;;;18.80;66.50;;;;;;5041412;28;20036;-76
2022/06/05 07:16:11;;;;;;;7.65;4.20;;;18.90;66.90;;;;;;5048783;28;20678;-75
2022/06/05 07:18:37;;;;;;;8.85;6.68;;;19.00;65.30;;;;;;5050643;28;20025;-75
2022/06/05 07:21:14;;;;;;;8.18;5.20;;;19.10;65.00;;;;;;5052327;28;20120;-76
2022/06/05 07:23:41;;;;;;;8.85;5.82;;;19.20;64.50;;;;;;5051591;28;20024;-76
2022/06/05 07:26:10;;;;;;;8.57;4.32;;;19.40;64.40;;;;;;5044569;28;20079;-77
2022/06/05 07:28:37;;;;;;;9.70;7.10;;;19.50;63.60;;;;;;5047283;28;20034;-75
2022/06/05 07:31:06;;;;;;;5.47;3.42;;;19.60;63.80;;;;;;5043034;28;20037;-74
2022/06/05 07:33:33;;;;;;;7.70;4.75;;;19.70;62.70;;;;;;5044463;28;20108;-76
2022/06/05 07:36:03;;;;;;;10.25;7.45;;;19.80;63.50;;;;;;5043413;28;20029;-76
2022/06/05 07:38:29;;;;;;;6.03;4.80;;;19.90;63.60;;;;;;5041450;28;20403;-76
2022/06/05 07:40:56;;;;;;;6.68;4.72;;;20.00;63.00;;;;;;5042576;28;20037;-76
2022/06/05 07:43:22;;;;;;;6.97;4.55;;;20.10;62.40;;;;;;5042973;28;20029;-74
2022/06/05 07:45:48;;;;;;;5.25;3.80;;;20.20;62.30;;;;;;5042780;28;20059;-75
2022/06/05 07:48:16;;;;;;;7.85;4.47;;;20.20;62.00;;;;;;5041970;28;20061;-76
2022/06/05 07:56:27;;;;;;;7.78;4.65;;;20.40;61.40;;;;;;5046034;28;20399;-76
2022/06/05 07:58:52;;;;;;;6.38;3.35;;;20.50;61.80;;;;;;5051659;28;20107;-75
2022/06/05 08:01:18;;;;;;;8.23;5.03;;;20.60;61.10;;;;;;5050202;28;20033;-75
2022/06/05 08:03:43;;;;;;;7.68;4.90;;;20.60;61.40;;;;;;5051496;28;20021;-75
2022/06/05 08:06:09;;;;;;;6.65;4.30;;;20.70;61.80;;;;;;5051280;28;20017;-75
2022/06/05 08:08:35;;;;;;;8.93;5.80;;;20.80;61.50;;;;;;5051271;28;20055;-76
2022/06/05 08:11:04;;;;;;;5.20;3.58;;;21.00;61.40;;;;;;5048792;28;20025;-75
2022/06/05 08:13:30;;;;;;;6.60;3.80;;;21.10;60.30;;;;;;5051500;28;20360;-75
2022/06/05 08:15:56;;;;;;;8.13;5.82;;;21.20;60.10;;;;;;5050231;28;20029;-75
2022/06/05 08:18:22;;;;;;;8.73;6.70;;;21.30;60.40;;;;;;5051254;28;20048;-76
2022/06/05 08:20:49;;;;;;;12.50;4.32;;;21.50;60.50;;;;;;5050732;28;20483;-76
2022/06/05 08:23:15;;;;;;;8.52;4.60;;;21.60;59.80;;;;;;5049846;28;20086;-78
2022/06/05 08:25:41;;;;;;;9.05;5.82;;;21.80;59.50;;;;;;5051055;28;20775;-76
2022/06/05 08:28:08;;;;;;;8.25;5.95;;;21.90;59.60;;;;;;5050817;28;20035;-75
2022/06/05 08:30:35;;;;;;;9.05;4.75;;;22.00;59.70;;;;;;5050217;28;20419;-75
2022/06/05 08:33:00;;;;;;;8.75;3.92;;;22.10;59.70;;;;;;5049585;28;20079;-75
2022/06/05 08:35:26;;;;;;;7.95;5.15;;;22.30;58.60;;;;;;5049921;28;20053;-75
2022/06/05 08:43:50;;;;;;;10.80;5.00;;;22.60;58.30;;;;;;5051120;28;20053;-75
2022/06/05 08:46:42;;;;;;;14.80;4.15;;;22.70;58.20;;;;;;5042094;28;20052;-75
2022/06/05 08:49:16;;;;;;;8.95;6.72;;;22.80;58.10;;;;;;5013912;28;20037;-75
2022/06/05 08:52:01;;;;;;;10.90;4.57;;;22.90;58.90;;;;;;5051097;28;20029;-75
2022/06/05 08:54:58;;;;;;;10.35;6.18;;;23.10;58.20;;;;;;5052262;28;20025;-76
2022/06/05 08:57:39;;;;;;;7.57;4.93;;;23.20;57.70;;;;;;5050536;28;20044;-75
2022/06/05 09:00:19;;;;;;;8.35;3.65;;;23.40;57.70;;;;;;5055277;28;20108;-75
2022/06/05 09:02:55;;;;;;;8.38;5.32;;;23.60;57.20;;;;;;5050700;28;20107;-75
2022/06/05 09:05:33;;;;;;;10.30;8.15;;;23.70;57.50;;;;;;5048579;28;20036;-74
2022/06/05 09:08:08;;;;;;;10.68;7.18;;;23.80;57.20;;;;;;5050007;28;20032;-75
2022/06/05 09:10:37;;;;;;;8.07;5.72;;;23.90;56.70;;;;;;5048711;28;20021;-74
2022/06/05 09:13:21;;;;;;;7.45;4.43;;;24.00;56.60;;;;;;5048314;28;20029;-76
2022/06/05 09:16:00;;;;;;;7.97;5.97;;;24.00;56.60;;;;;;5050516;28;20037;-76
2022/06/05 09:18:35;;;;;;;10.48;6.90;;;24.10;56.80;;;;;;5045518;28;20024;-74
2022/06/05 09:21:21;;;;;;;10.13;7.63;;;24.20;56.60;;;;;;5048705;28;20033;-74
2022/06/05 09:23:55;;;;;;;8.75;6.32;;;24.30;56.60;;;;;;5047557;28;20033;-75
2022/06/05 09:26:31;;;;;;;8.75;5.63;;;24.40;56.40;;;;;;5049717;28;20444;-75
2022/06/05 09:29:44;;;;;;;7.68;4.65;;;24.40;56.40;;;;;;5049692;28;20506;-75
2022/06/05 09:32:37;;;;;;;6.45;4.95;;;24.60;56.20;;;;;;5048170;28;20443;-74
2022/06/05 09:35:29;;;;;;;11.70;6.00;;;24.60;56.30;;;;;;5048885;28;20069;-75
2022/06/05 09:38:14;;;;;;;7.90;6.15;;;24.70;56.50;;;;;;5049268;28;20099;-76
2022/06/05 09:41:11;;;;;;;9.93;4.85;;;24.70;56.60;;;;;;4997854;28;20037;-76
2022/06/05 09:43:45;;;;;;;8.13;4.22;;;24.60;56.40;;;;;;5043020;28;20055;-75
2022/06/05 09:46:29;;;;;;;7.13;4.05;;;24.60;56.70;;;;;;5042944;28;20128;-77
2022/06/05 09:49:02;;;;;;;8.75;4.70;;;24.50;56.80;;;;;;5046898;28;20037;-75
2022/06/05 09:51:28;;;;;;;5.93;3.92;;;24.50;56.90;;;;;;5047001;28;20119;-76
2022/06/05 09:54:11;;;;;;;8.50;6.10;;;24.40;57.20;;;;;;5048357;28;20140;-75
2022/06/05 09:59:40;;;;;;;7.47;3.67;;;24.40;57.00;;;;;;5038006;28;20091;-75
2022/06/05 10:02:07;;;;;;;4.90;3.10;;;24.40;57.40;;;;;;5047310;28;20130;-75
2022/06/05 10:04:34;;;;;;;11.30;4.80;;;24.30;57.40;;;;;;5047675;28;20013;-74
2022/06/05 10:07:13;;;;;;;8.63;5.80;;;24.30;57.40;;;;;;5047284;28;20017;-74
2022/06/05 10:09:45;;;;;;;6.85;4.60;;;24.20;57.60;;;;;;5047710;28;20082;-74
2022/06/05 10:12:41;;;;;;;8.02;5.13;;;24.20;57.90;;;;;;5042582;28;20018;-73
2022/06/05 10:15:39;;;;;;;9.77;4.60;;;24.10;58.00;;;;;;5039685;28;20090;-73
2022/06/05 10:18:14;;;;;;;6.25;3.10;;;24.10;58.10;;;;;;5048818;28;20071;-75
2022/06/05 10:21:13;;;;;;;7.88;3.30;;;24.10;58.10;;;;;;5048985;28;20028;-75
2022/06/05 10:23:58;;;;;;;8.67;4.97;;;24.20;58.00;;;;;;5005675;28;20094;-75
2022/06/05 10:26:28;;;;;;;6.28;4.47;;;24.20;58.30;;;;;;5039194;28;20032;-76
2022/06/05 10:29:25;;;;;;;7.07;5.47;;;24.20;58.70;;;;;;5048954;28;20021;-73
2022/06/05 10:32:16;;;;;;;8.35;4.30;;;24.10;58.10;;;;;;5047479;28;20112;-75
2022/06/05 10:34:47;;;;;;;6.07;4.53;;;24.20;58.00;;;;;;5048278;28;20067;-75
2022/06/05 10:37:20;;;;;;;5.00;4.20;;;24.10;58.10;;;;;;5047412;28;20028;-75
2022/06/05 10:39:58;;;;;;;6.38;3.13;;;24.10;58.30;;;;;;5048557;28;20092;-75
2022/06/05 10:42:54;;;;;;;7.18;6.03;;;24.20;58.20;;;;;;5034980;28;20344;-75
2022/06/05 10:45:29;;;;;;;6.35;3.33;;;24.10;58.50;;;;;;5041929;28;20044;-75
2022/06/05 10:48:06;;;;;;;5.70;3.40;;;24.10;58.40;;;;;;5048679;28;20062;-75
2022/06/05 10:50:48;;;;;;;6.20;3.38;;;24.20;58.50;;;;;;5047223;28;20120;-75
2022/06/05 10:53:18;;;;;;;7.10;4.53;;;24.20;58.30;;;;;;5050016;28;20111;-76
2022/06/05 10:56:06;;;;;;;7.68;4.07;;;24.30;58.30;;;;;;5052557;28;20089;-75
2022/06/05 10:58:38;;;;;;;7.65;4.07;;;24.30;58.00;;;;;;5031199;28;20104;-75
2022/06/05 11:01:19;;;;;;;4.78;2.83;;;24.30;57.80;;;;;;5047004;28;20037;-74
2022/06/05 11:03:54;;;;;;;6.82;4.45;;;24.30;57.60;;;;;;5032376;28;20033;-74
2022/06/05 11:06:40;;;;;;;8.40;5.78;;;24.40;58.10;;;;;;5047803;28;20025;-75
2022/06/05 11:09:46;;;;;;;6.18;3.78;;;24.30;57.80;;;;;;5032589;28;20457;-75
2022/06/05 11:15:25;;;;;;;5.32;3.25;;;24.00;58.40;;;;;;5051887;28;20477;-73
2022/06/05 11:17:55;;;;;;;5.25;3.70;;;24.00;58.40;;;;;;5050894;28;20029;-76
2022/06/05 11:20:24;;;;;;;7.70;6.13;;;23.90;58.60;;;;;;5052703;28;20063;-75
2022/06/05 11:22:59;;;;;;;6.07;3.30;;;23.90;58.80;;;;;;5052488;28;20063;-75
2022/06/05 11:25:36;;;;;;;7.25;4.60;;;23.80;58.70;;;;;;5053519;28;20021;-74
2022/06/05 11:28:39;;;;;;;4.82;3.63;;;23.70;58.70;;;;;;5057562;28;20028;-75
2022/06/05 11:31:05;;;;;;;5.60;3.67;;;23.70;59.10;;;;;;5054947;28;20144;-75
2022/06/05 11:33:35;;;;;;;7.57;6.07;;;23.60;59.20;;;;;;5052525;28;20105;-75
2022/06/05 11:36:24;;;;;;;6.15;4.15;;;23.60;59.20;;;;;;5051804;28;20147;-76
2022/06/05 11:39:29;;;;;;;6.05;3.45;;;23.60;59.30;;;;;;5044522;28;20079;-75
2022/06/05 11:42:09;;;;;;;8.57;5.68;;;23.60;59.40;;;;;;5051465;28;20828;-75
2022/06/05 11:44:42;;;;;;;7.03;4.82;;;23.60;59.40;;;;;;5051155;28;20947;-75
2022/06/05 11:47:31;;;;;;;5.03;3.20;;;23.50;59.50;;;;;;5051294;28;20033;-75
2022/06/05 11:50:08;;;;;;;6.65;4.13;;;23.60;59.50;;;;;;5051444;28;20032;-75
2022/06/05 11:52:36;;;;;;;4.80;3.30;;;23.60;59.30;;;;;;5049039;28;20036;-74
2022/06/05 11:55:10;;;;;;;6.72;4.53;;;23.60;59.10;;;;;;5050439;28;20484;-75
2022/06/05 11:57:46;;;;;;;4.72;3.58;;;23.60;59.40;;;;;;5051137;28;20128;-74
2022/06/05 12:00:20;;;;;;;6.18;4.72;;;23.60;59.30;;;;;;5050636;28;20045;-75
2022/06/05 12:02:59;;;;;;;7.85;3.83;;;23.60;59.50;;;;;;5051102;28;20037;-76
2022/06/05 12:05:37;;;;;;;5.85;4.35;;;23.50;59.50;;;;;;5049065;28;20098;-75
2022/06/05 12:08:11;;;;;;;7.18;5.15;;;23.50;59.80;;;;;;5050345;28;20044;-76
2022/06/05 12:11:00;;;;;;;5.47;3.58;;;23.50;60.50;;;;;;5051176;28;20025;-75
2022/06/05 12:13:34;;;;;;;5.50;3.65;;;23.50;60.10;;;;;;5051172;28;20029;-75
2022/06/05 12:16:17;;;;;;;6.63;4.95;;;23.50;60.00;;;;;;5050081;28;20078;-77
2022/06/05 12:18:56;;;;;;;7.30;4.95;;;23.50;60.60;;;;;;5050744;28;20021;-77
2022/06/05 12:21:57;;;;;;;6.28;3.90;;;23.50;61.80;;;;;;5030944;28;20116;-77
2022/06/05 12:24:28;;;;;;;5.95;5.07;;;23.50;61.30;;;;;;5050322;28;20029;-76
2022/06/05 12:27:09;;;;;;;8.18;6.50;;;23.50;64.00;;;;;;5050044;28;20020;-75
2022/06/05 12:29:44;;;;;;;7.38;6.50;;;23.50;66.70;;;;;;5050472;28;20089;-75
2022/06/05 12:32:49;;;;;;;4.63;3.50;;;23.50;66.10;;;;;;5051086;28;20017;-76
2022/06/05 12:35:25;;;;;;;7.30;4.20;;;23.50;64.20;;;;;;5049240;28;20049;-75
2022/06/05 12:38:20;;;;;;;7.10;4.03;;;23.40;64.20;;;;;;5051060;28;20029;-77
2022/06/05 12:40:58;;;;;;;9.43;5.78;;;23.30;62.00;;;;;;5050494;28;20060;-76
2022/06/05 12:43:35;;;;;;;9.90;8.90;;;23.20;64.00;;;;;;5050586;28;20424;-76
2022/06/05 12:46:27;;;;;;;7.82;6.18;;;23.00;65.50;;;;;;5050636;28;20021;-76
2022/06/05 12:49:05;;;;;;;8.45;7.07;;;22.80;65.70;;;;;;5049494;28;20017;-77
2022/06/05 12:51:32;;;;;;;7.75;5.20;;;22.60;67.80;;;;;;5050026;28;20021;-76
2022/06/05 12:54:18;;;;;;;7.50;5.93;;;22.50;66.40;;;;;;5050207;28;20052;-77
2022/06/05 12:56:50;;;;;;;10.20;9.07;;;22.40;67.70;;;;;;5007746;28;20432;-77
2022/06/05 12:59:33;;;;;;;9.98;8.98;;;22.40;69.50;;;;;;5049997;28;20029;-76
2022/06/05 13:02:26;;;;;;;9.82;7.93;;;22.40;71.60;;;;;;5049676;28;20043;-76
2022/06/05 13:04:59;;;;;;;11.27;10.10;;;22.40;72.10;;;;;;5050219;28;20371;-76
2022/06/05 13:07:38;;;;;;;10.68;9.38;;;22.40;72.20;;;;;;5050251;28;20364;-77
2022/06/05 13:10:30;;;;;;;6.65;4.68;;;22.40;72.30;;;;;;5050098;28;20467;-76
2022/06/05 13:13:05;;;;;;;4.30;3.30;;;22.50;67.80;;;;;;5041125;28;20526;-76
2022/06/05 13:15:38;;;;;;;5.00;3.45;;;22.50;64.30;;;;;;5031604;28;20407;-76
2022/06/05 13:18:23;;;;;;;6.43;3.22;;;22.60;63.00;;;;;;5048947;28;20067;-75
2022/06/05 13:20:58;;;;;;;10.70;6.43;;;22.60;62.60;;;;;;5048308;28;20048;-76
2022/06/05 13:23:57;;;;;;;10.15;7.70;;;22.70;65.20;;;;;;5030031;28;20025;-75
2022/06/05 13:26:56;;;;;;;6.63;4.47;;;22.80;68.00;;;;;;5036106;28;20041;-76
2022/06/05 13:29:47;;;;;;;10.07;9.07;;;22.80;66.70;;;;;;5049604;28;20104;-76
2022/06/05 13:32:30;;;;;;;7.85;6.40;;;22.80;69.90;;;;;;5047879;28;20021;-75
2022/06/05 13:35:06;;;;;;;6.78;5.20;;;22.80;71.40;;;;;;5047715;28;20052;-76
2022/06/05 13:38:02;;;;;;;8.85;7.32;;;22.80;71.00;;;;;;5038122;28;20021;-76
2022/06/05 13:40:43;;;;;;;10.75;9.65;;;22.80;71.40;;;;;;5049041;28;20017;-75